sensor_id;sensor_type;location;lat;lon;timestamp;P1;durP1;ratioP1;P2;durP2;ratioP2
34828;SDS011;21042;47.620;12.188;2023-04-03T00:01:04;15.85;;;9.20;;
34828;SDS011;21042;47.620;12.188;2023-04-03T00:03:31;12.38;;;7.38;;
34828;SDS011;21042;47.620;12.188;2023-04-03T00:05:59;12.50;;;7.32;;
34828;SDS011;21042;47.620;12.188;2023-04-03T00:08:26;12.18;;;7.30;;
34828;SDS011;21042;47.620;12.188;2023-04-03T00:10:53;10.93;;;5.82;;
34828;SDS011;21042;47.620;12.188;2023-04-03T00:13:20;15.20;;;7.78;;
34828;SDS011;21042;47.620;12.188;2023-04-03T00:15:46;14.00;;;7.60;;
34828;SDS011;21042;47.620;12.188;2023-04-03T00:18:13;11.70;;;7.25;;
34828;SDS011;21042;47.620;12.188;2023-04-03T00:20:40;12.18;;;7.07;;
34828;SDS011;21042;47.620;12.188;2023-04-03T00:23:07;11.68;;;6.82;;
34828;SDS011;21042;47.620;12.188;2023-04-03T00:25:34;11.90;;;7.13;;
34828;SDS011;21042;47.620;12.188;2023-04-03T00:28:01;11.73;;;7.00;;
34828;SDS011;21042;47.620;12.188;2023-04-03T00:30:28;11.90;;;7.07;;
34828;SDS011;21042;47.620;12.188;2023-04-03T00:32:54;12.43;;;7.20;;
34828;SDS011;21042;47.620;12.188;2023-04-03T00:35:21;12.05;;;7.10;;
34828;SDS011;21042;47.620;12.188;2023-04-03T00:37:52;11.70;;;6.97;;
34828;SDS011;21042;47.620;12.188;2023-04-03T00:40:22;12.25;;;7.28;;
34828;SDS011;21042;47.620;12.188;2023-04-03T00:42:55;10.05;;;6.43;;
34828;SDS011;21042;47.620;12.188;2023-04-03T00:45:31;13.68;;;7.45;;
34828;SDS011;21042;47.620;12.188;2023-04-03T00:48:01;14.25;;;8.23;;
34828;SDS011;21042;47.620;12.188;2023-04-03T00:50:32;11.38;;;7.43;;
34828;SDS011;21042;47.620;12.188;2023-04-03T00:53:03;11.85;;;7.40;;
34828;SDS011;21042;47.620;12.188;2023-04-03T00:55:32;13.00;;;7.40;;
34828;SDS011;21042;47.620;12.188;2023-04-03T00:58:01;16.92;;;8.60;;
34828;SDS011;21042;47.620;12.188;2023-04-03T01:00:28;13.40;;;7.57;;
34828;SDS011;21042;47.620;12.188;2023-04-03T01:05:24;8.57;;;4.97;;
34828;SDS011;21042;47.620;12.188;2023-04-03T01:07:51;9.13;;;5.90;;
34828;SDS011;21042;47.620;12.188;2023-04-03T01:10:19;12.32;;;7.30;;
34828;SDS011;21042;47.620;12.188;2023-04-03T01:12:48;11.23;;;6.85;;
34828;SDS011;21042;47.620;12.188;2023-04-03T01:15:19;12.38;;;7.25;;
34828;SDS011;21042;47.620;12.188;2023-04-03T01:17:53;13.63;;;7.78;;
34828;SDS011;21042;47.620;12.188;2023-04-03T01:25:36;12.43;;;7.25;;
34828;SDS011;21042;47.620;12.188;2023-04-03T01:28:06;11.95;;;7.43;;
34828;SDS011;21042;47.620;12.188;2023-04-03T01:30:35;13.48;;;7.57;;
34828;SDS011;21042;47.620;12.188;2023-04-03T01:33:13;12.82;;;7.82;;
34828;SDS011;21042;47.620;12.188;2023-04-03T01:35:40;16.45;;;8.63;;
34828;SDS011;21042;47.620;12.188;2023-04-03T01:38:06;10.30;;;6.50;;
34828;SDS011;21042;47.620;12.188;2023-04-03T01:40:33;16.63;;;8.50;;
34828;SDS011;21042;47.620;12.188;2023-04-03T01:43:02;15.55;;;8.65;;
34828;SDS011;21042;47.620;12.188;2023-04-03T01:45:28;15.02;;;9.07;;
34828;SDS011;21042;47.620;12.188;2023-04-03T01:47:55;17.55;;;9.82;;
34828;SDS011;21042;47.620;12.188;2023-04-03T01:50:23;17.75;;;9.32;;
34828;SDS011;21042;47.620;12.188;2023-04-03T01:52:51;17.30;;;8.82;;
34828;SDS011;21042;47.620;12.188;2023-04-03T01:55:18;15.43;;;8.40;;
34828;SDS011;21042;47.620;12.188;2023-04-03T01:57:44;15.43;;;8.88;;
34828;SDS011;21042;47.620;12.188;2023-04-03T02:00:11;16.83;;;9.30;;
34828;SDS011;21042;47.620;12.188;2023-04-03T02:02:40;16.08;;;9.10;;
34828;SDS011;21042;47.620;12.188;2023-04-03T02:05:07;17.95;;;9.88;;
34828;SDS011;21042;47.620;12.188;2023-04-03T02:07:34;16.63;;;9.32;;
34828;SDS011;21042;47.620;12.188;2023-04-03T02:10:01;14.90;;;8.23;;
